Time;durP1;ratioP1;P1;durP2;ratioP2;P2;SDS_P1;SDS_P2;PMS_P1;PMS_P2;Temp;Humidity;BMP_temperature;BMP_pressure;BME280_temperature;BME280_humidity;BME280_pressure;Samples;Min_cycle;Max_cycle;Signal;HPM_P1;HPM_P2
2022/06/25 00:02:05;;;;;;;17.02;16.23;;;;;;;18.73;78.00;100296.84;5042532;28;20131;-70
2022/06/25 00:07:17;;;;;;;15.95;15.15;;;;;;;18.63;78.39;100310.19;5048485;28;20132;-70
2022/06/25 00:09:44;;;;;;;16.08;15.07;;;;;;;18.64;78.74;100311.84;5048859;28;20056;-71
2022/06/25 00:14:56;;;;;;;14.93;14.02;;;;;;;18.65;78.45;100298.50;5042687;28;20132;-69
2022/06/25 00:17:23;;;;;;;15.40;14.25;;;;;;;18.69;78.53;100305.97;5035415;28;20124;-69
2022/06/25 00:19:50;;;;;;;15.45;14.18;;;;;;;18.67;78.51;100305.50;5046801;28;20511;-69
2022/06/25 00:22:17;;;;;;;14.40;13.57;;;;;;;18.57;78.58;100291.75;5042518;28;20124;-72
2022/06/25 00:24:43;;;;;;;15.20;14.10;;;;;;;18.60;78.41;100299.56;5053518;28;20132;-69
2022/06/25 00:27:10;;;;;;;14.60;13.68;;;;;;;18.52;78.24;100291.91;5050459;28;20072;-69
2022/06/25 00:29:37;;;;;;;14.68;13.63;;;;;;;18.62;78.18;100290.72;5043818;28;20535;-71
2022/06/25 00:32:04;;;;;;;15.55;14.50;;;;;;;18.61;78.52;100289.88;5045596;28;20512;-72
2022/06/25 00:34:31;;;;;;;13.77;12.98;;;;;;;18.56;78.34;100284.41;5051817;28;20048;-70
2022/06/25 00:36:58;;;;;;;13.85;13.15;;;;;;;18.60;78.56;100291.06;5043346;28;20503;-71
2022/06/25 00:39:25;;;;;;;14.02;13.23;;;;;;;18.71;78.59;100305.66;5048039;28;20255;-70
2022/06/25 00:41:52;;;;;;;13.57;12.68;;;;;;;18.50;78.64;100277.31;5050305;28;20080;-71
2022/06/25 00:44:19;;;;;;;14.05;13.30;;;;;;;18.60;78.33;100293.91;5041147;28;20094;-73
2022/06/25 00:46:47;;;;;;;14.68;13.88;;;;;;;18.53;78.62;100276.63;5040230;28;20143;-72
2022/06/25 00:49:14;;;;;;;16.30;15.40;;;;;;;18.62;78.52;100288.72;5040625;28;20132;-73
2022/06/25 00:51:45;;;;;;;14.70;13.48;;;;;;;18.60;78.26;100282.59;5045291;28;20538;-72
2022/06/25 00:54:13;;;;;;;14.27;13.40;;;;;;;18.68;78.42;100286.53;5050461;28;20128;-73
2022/06/25 00:56:48;;;;;;;13.95;13.23;;;;;;;18.75;78.14;100294.50;5050357;28;20057;-70
2022/06/25 00:59:19;;;;;;;14.27;13.38;;;;;;;18.73;78.06;100294.00;5042071;28;20132;-73
2022/06/25 01:01:46;;;;;;;14.07;12.85;;;;;;;18.55;78.36;100274.28;5049162;28;20586;-72
2022/06/25 01:04:13;;;;;;;14.38;13.20;;;;;;;18.62;78.03;100291.53;5046754;28;20053;-71
2022/06/25 01:06:42;;;;;;;12.63;11.73;;;;;;;18.64;78.33;100283.56;5049833;28;20072;-71
2022/06/25 01:09:09;;;;;;;13.48;12.40;;;;;;;18.41;78.23;100262.38;5049631;28;20467;-72
2022/06/25 01:11:35;;;;;;;12.45;11.60;;;;;;;18.56;78.08;100286.41;5049490;28;20080;-72
2022/06/25 01:14:07;;;;;;;13.07;12.27;;;;;;;18.55;77.96;100276.28;5043816;28;20137;-72
2022/06/25 01:16:34;;;;;;;12.70;12.00;;;;;;;18.58;78.45;100286.91;5043966;28;20073;-71
2022/06/25 01:19:12;;;;;;;12.38;11.25;;;;;;;18.43;78.22;100248.75;5042911;28;20132;-73
2022/06/25 01:21:40;;;;;;;13.90;13.13;;;;;;;18.46;78.21;100260.19;5045608;28;20132;-73
2022/06/25 01:24:07;;;;;;;13.05;11.98;;;;;;;18.50;78.35;100262.34;5040760;28;21164;-74
2022/06/25 01:26:35;;;;;;;12.60;11.80;;;;;;;18.45;78.20;100255.69;5043946;28;20144;-70
2022/06/25 01:29:03;;;;;;;12.32;11.43;;;;;;;18.58;78.36;100273.59;5047095;28;20084;-69
2022/06/25 01:31:30;;;;;;;15.43;14.50;;;;;;;18.24;78.17;100235.84;5042413;28;20046;-69
2022/06/25 01:33:58;;;;;;;12.68;11.73;;;;;;;18.51;78.11;100276.13;5049837;28;20099;-69
2022/06/25 01:36:26;;;;;;;12.05;11.05;;;;;;;18.43;78.06;100265.72;5036348;28;20528;-69
2022/06/25 01:38:52;;;;;;;11.68;11.07;;;;;;;18.51;78.13;100278.13;5046669;28;20556;-68
2022/06/25 01:41:20;;;;;;;11.55;10.85;;;;;;;18.36;78.18;100260.59;5049316;28;20487;-69
2022/06/25 01:43:47;;;;;;;13.18;11.95;;;;;;;18.46;77.71;100276.31;5042236;28;20136;-68
2022/06/25 01:46:14;;;;;;;11.30;10.50;;;;;;;18.40;77.81;100269.22;5038914;28;20045;-70
2022/06/25 01:48:41;;;;;;;12.23;11.18;;;;;;;18.36;77.86;100277.56;5049522;28;20060;-69
2022/06/25 01:51:08;;;;;;;11.98;11.00;;;;;;;18.29;77.97;100265.94;5035245;28;20511;-69
2022/06/25 01:53:35;;;;;;;10.45;9.75;;;;;;;18.21;78.18;100250.66;5044322;28;20136;-69
2022/06/25 01:56:02;;;;;;;11.57;10.77;;;;;;;18.28;78.23;100269.09;5049883;28;20057;-70
2022/06/25 01:58:30;;;;;;;11.13;10.32;;;;;;;18.29;78.17;100270.75;5039821;28;20129;-67
2022/06/25 02:00:56;;;;;;;12.38;11.57;;;;;;;18.28;78.27;100269.09;5036841;28;20140;-69
2022/06/25 02:03:23;;;;;;;12.65;11.85;;;;;;;18.29;78.48;100265.94;5050155;28;20110;-70
2022/06/25 02:05:56;;;;;;;12.40;11.40;;;;;;;17.95;78.20;100214.06;5047448;28;20052;-71
2022/06/25 02:08:26;;;;;;;12.45;11.48;;;;;;;18.24;78.57;100257.63;5046858;28;20132;-70
2022/06/25 02:10:54;;;;;;;12.15;11.18;;;;;;;18.22;78.45;100257.13;5043800;28;20124;-67
2022/06/25 02:13:21;;;;;;;12.27;11.43;;;;;;;18.19;78.09;100261.50;5043041;28;20128;-68
2022/06/25 02:15:48;;;;;;;12.57;11.55;;;;;;;18.18;78.47;100262.63;5041105;28;20480;-68
2022/06/25 02:18:16;;;;;;;11.85;11.05;;;;;;;18.16;78.55;100261.34;5047313;28;20500;-68
2022/06/25 02:20:43;;;;;;;12.85;11.50;;;;;;;18.16;78.32;100262.16;5045869;28;20131;-68
2022/06/25 02:23:11;;;;;;;11.75;10.98;;;;;;;18.09;78.35;100249.75;5044968;28;20084;-68
2022/06/25 02:25:38;;;;;;;12.18;11.10;;;;;;;18.16;78.23;100267.00;5043798;28;20083;-69
2022/06/25 02:28:12;;;;;;;11.00;10.32;;;;;;;18.08;78.76;100254.53;5036413;28;20491;-70
2022/06/25 02:30:38;;;;;;;11.75;10.88;;;;;;;18.10;78.37;100257.88;5040905;28;20088;-70
2022/06/25 02:33:11;;;;;;;10.98;10.27;;;;;;;18.16;78.32;100250.03;5043156;28;20088;-69
2022/06/25 02:35:42;;;;;;;12.15;10.60;;;;;;;18.12;78.58;100261.19;5047703;28;20524;-69
2022/06/25 02:38:11;;;;;;;10.70;9.98;;;;;;;18.08;78.45;100253.72;5041562;28;20076;-70
2022/06/25 02:40:38;;;;;;;10.73;10.02;;;;;;;17.92;78.48;100244.97;5048718;28;20107;-70
2022/06/25 02:43:05;;;;;;;11.77;10.80;;;;;;;17.70;78.64;100221.41;5042816;28;20402;-69
2022/06/25 02:45:32;;;;;;;11.25;10.00;;;;;;;17.91;78.43;100232.81;5037995;28;20473;-69
2022/06/25 02:47:59;;;;;;;10.98;10.05;;;;;;;18.05;78.32;100252.41;5046832;28;20430;-68
2022/06/25 02:50:26;;;;;;;10.23;9.30;;;;;;;17.96;78.11;100251.59;5046081;28;20124;-68
2022/06/25 02:52:53;;;;;;;10.07;9.25;;;;;;;17.90;77.98;100247.31;5037351;28;20052;-69
2022/06/25 02:58:54;;;;;;;10.50;9.60;;;;;;;17.98;78.22;100267.06;5050133;28;20448;-69
2022/06/25 03:00:53;;;;;;;10.48;9.60;;;;;;;17.85;77.96;100251.16;5034342;28;20084;-68
2022/06/25 03:03:20;;;;;;;10.07;9.35;;;;;;;17.95;78.49;100261.25;5044806;28;20132;-69
2022/06/25 03:05:47;;;;;;;11.02;10.27;;;;;;;17.95;78.54;100244.31;5042740;28;20088;-69
2022/06/25 03:08:14;;;;;;;10.43;9.73;;;;;;;18.06;78.27;100251.25;5052010;28;20091;-69
2022/06/25 03:10:41;;;;;;;10.73;9.90;;;;;;;17.96;78.20;100248.78;5042042;28;20077;-68
2022/06/25 03:13:07;;;;;;;10.05;9.45;;;;;;;18.07;78.49;100258.53;5045338;28;20068;-69
2022/06/25 03:15:34;;;;;;;11.25;10.15;;;;;;;18.02;78.48;100255.06;5037964;28;20059;-68
2022/06/25 03:18:01;;;;;;;10.82;9.10;;;;;;;17.74;78.56;100207.44;5050067;28;20156;-69
2022/06/25 03:20:28;;;;;;;18.25;10.40;;;;;;;18.14;78.62;100263.66;5042497;28;20136;-68
2022/06/25 03:22:55;;;;;;;10.23;9.23;;;;;;;17.99;78.10;100225.50;5031942;28;20096;-69
2022/06/25 03:25:23;;;;;;;10.05;9.25;;;;;;;18.14;78.30;100247.53;5039181;28;20107;-69
2022/06/25 03:27:49;;;;;;;9.63;9.02;;;;;;;18.03;77.96;100234.97;5043257;28;20103;-68
2022/06/25 03:30:16;;;;;;;9.93;9.32;;;;;;;18.11;78.14;100247.38;5038948;28;20128;-69
2022/06/25 03:32:43;;;;;;;9.68;9.00;;;;;;;18.07;78.42;100243.59;5044528;28;20055;-69
2022/06/25 03:35:10;;;;;;;9.25;8.70;;;;;;;18.07;78.12;100257.72;5042476;28;20052;-69
2022/06/25 03:37:37;;;;;;;10.05;9.05;;;;;;;18.08;78.48;100256.53;5042835;28;20128;-68
2022/06/25 03:40:04;;;;;;;9.77;9.07;;;;;;;17.77;78.43;100201.16;5040982;28;20099;-69
2022/06/25 03:42:31;;;;;;;10.40;9.40;;;;;;;17.83;78.31;100221.56;5048877;28;20080;-68
2022/06/25 03:44:58;;;;;;;15.15;9.75;;;;;;;17.99;78.05;100239.63;5034921;28;20136;-68
2022/06/25 03:47:25;;;;;;;12.73;10.27;;;;;;;17.91;78.06;100232.00;5041176;28;20136;-69
2022/06/25 03:49:53;;;;;;;10.10;9.30;;;;;;;17.97;78.53;100242.78;5047867;28;20481;-68
2022/06/25 03:52:21;;;;;;;12.13;8.30;;;;;;;18.03;78.20;100240.59;5036005;28;20551;-69
2022/06/25 03:54:47;;;;;;;10.10;9.35;;;;;;;17.99;77.99;100242.47;5046249;28;20139;-69
2022/06/25 03:57:14;;;;;;;10.27;9.50;;;;;;;17.93;78.04;100235.31;5053657;28;20092;-69
2022/06/25 03:59:41;;;;;;;10.35;9.43;;;;;;;17.88;78.12;100230.69;5040402;28;20088;-69
2022/06/25 04:02:08;;;;;;;9.82;8.93;;;;;;;17.85;77.67;100230.56;5035179;28;20077;-68
2022/06/25 04:04:35;;;;;;;10.70;9.82;;;;;;;17.83;77.85;100232.88;5049034;28;20514;-68
2022/06/25 04:07:02;;;;;;;9.18;8.27;;;;;;;17.81;77.89;100223.88;5037134;28;20045;-68
2022/06/25 04:09:29;;;;;;;8.88;8.30;;;;;;;17.83;77.94;100227.22;5055545;28;20088;-68
2022/06/25 04:11:56;;;;;;;8.48;7.97;;;;;;;17.73;77.84;100220.72;5046342;28;20080;-69
2022/06/25 04:14:23;;;;;;;8.88;8.27;;;;;;;17.73;77.84;100223.56;5045979;28;20132;-68
2022/06/25 04:16:50;;;;;;;9.38;8.30;;;;;;;17.81;77.96;100241.69;5046583;28;20423;-68
2022/06/25 04:19:17;;;;;;;9.20;8.60;;;;;;;17.80;77.75;100236.38;5034702;28;20107;-68
2022/06/25 04:21:47;;;;;;;8.90;8.23;;;;;;;17.73;77.99;100226.38;5036036;28;20045;-69
2022/06/25 04:24:15;;;;;;;10.15;9.45;;;;;;;17.82;78.00;100234.88;5040847;28;20055;-68
2022/06/25 04:26:42;;;;;;;8.90;8.10;;;;;;;17.69;78.05;100219.75;5055758;28;20049;-68
2022/06/25 04:29:09;;;;;;;8.52;7.93;;;;;;;17.71;77.85;100228.72;5042010;28;20135;-68
2022/06/25 04:31:38;;;;;;;8.15;7.60;;;;;;;17.75;77.91;100241.00;5039879;28;20080;-67
2022/06/25 04:34:05;;;;;;;9.48;8.68;;;;;;;17.81;77.64;100250.16;5035799;28;20056;-67
2022/06/25 04:36:32;;;;;;;8.65;8.00;;;;;;;17.69;78.14;100236.69;5048572;28;20049;-67
2022/06/25 04:38:59;;;;;;;8.55;7.85;;;;;;;17.80;77.88;100253.31;5054381;28;20084;-69
2022/06/25 04:41:26;;;;;;;7.80;7.40;;;;;;;17.77;78.13;100258.47;5042544;28;20136;-68
2022/06/25 04:43:53;;;;;;;9.27;8.48;;;;;;;17.76;78.37;100253.97;5035758;28;20460;-69
2022/06/25 04:46:20;;;;;;;7.68;7.13;;;;;;;17.76;78.18;100248.34;5049456;28;20056;-68
2022/06/25 04:48:47;;;;;;;8.02;7.22;;;;;;;17.71;78.06;100237.19;5048455;28;20122;-68
2022/06/25 04:51:14;;;;;;;7.88;7.18;;;;;;;17.83;78.30;100269.59;5035486;28;20566;-68
2022/06/25 04:53:56;;;;;;;11.30;10.57;;;;;;;17.71;77.95;100264.63;5035167;28;20056;-67
2022/06/25 04:56:23;;;;;;;7.90;7.30;;;;;;;17.77;78.23;100272.56;5045184;28;20060;-68
2022/06/25 04:58:50;;;;;;;8.80;7.55;;;;;;;17.79;78.20;100262.97;5053653;28;20080;-68
2022/06/25 05:01:17;;;;;;;7.45;6.85;;;;;;;17.80;77.74;100261.78;5042114;28;20444;-68
2022/06/25 05:03:44;;;;;;;8.23;7.38;;;;;;;17.74;78.16;100261.09;5041256;28;20049;-68
2022/06/25 05:06:13;;;;;;;8.32;7.22;;;;;;;17.59;78.17;100239.06;5032170;28;20077;-68
2022/06/25 05:08:40;;;;;;;19.85;9.38;;;;;;;17.71;77.71;100258.97;5040400;28;20132;-69
2022/06/25 05:11:07;;;;;;;8.55;7.68;;;;;;;17.71;77.75;100271.09;5044024;28;20500;-68
2022/06/25 05:13:34;;;;;;;8.23;7.50;;;;;;;17.74;78.18;100284.53;5054741;28;20441;-68
2022/06/25 05:16:01;;;;;;;8.00;7.40;;;;;;;17.74;78.13;100278.91;5048305;28;20503;-67
2022/06/25 05:18:28;;;;;;;9.35;7.22;;;;;;;17.77;78.08;100292.34;5048399;28;20049;-68
2022/06/25 05:20:55;;;;;;;9.15;7.07;;;;;;;17.74;78.08;100290.19;5037631;28;20138;-68
2022/06/25 05:23:22;;;;;;;7.80;6.38;;;;;;;17.72;78.19;100286.84;5053986;28;20091;-68
2022/06/25 05:25:49;;;;;;;8.57;6.90;;;;;;;17.44;78.05;100246.88;5049598;28;20100;-68
2022/06/25 05:28:17;;;;;;;7.13;6.57;;;;;;;17.75;78.13;100280.53;5044416;28;20087;-67
2022/06/25 05:30:44;;;;;;;10.95;7.30;;;;;;;17.82;78.32;100287.72;5041401;28;20073;-68
2022/06/25 05:33:11;;;;;;;7.20;6.70;;;;;;;17.81;78.07;100284.06;5034470;28;20613;-67
2022/06/25 05:35:38;;;;;;;7.60;6.88;;;;;;;17.81;78.11;100286.88;5039232;28;20077;-68
2022/06/25 05:38:07;;;;;;;7.75;7.15;;;;;;;17.78;77.62;100284.72;5040002;28;20100;-68
2022/06/25 05:40:35;;;;;;;9.15;7.40;;;;;;;17.66;78.04;100268.44;5040400;28;20102;-68
2022/06/25 05:43:03;;;;;;;8.70;7.40;;;;;;;17.71;77.91;100273.91;5039298;28;20140;-68
2022/06/25 05:45:30;;;;;;;7.43;6.78;;;;;;;17.75;77.91;100283.38;5034415;28;20088;-68
2022/06/25 05:47:57;;;;;;;7.72;7.13;;;;;;;17.71;77.75;100262.63;5047681;28;20136;-67
2022/06/25 05:50:25;;;;;;;8.90;7.80;;;;;;;17.84;77.48;100282.53;5032558;28;20127;-67
2022/06/25 05:52:53;;;;;;;8.50;7.80;;;;;;;17.74;77.25;100272.38;5033038;28;20054;-68
2022/06/25 05:55:20;;;;;;;9.68;7.82;;;;;;;17.64;77.69;100262.31;5041394;28;20052;-68
2022/06/25 05:57:47;;;;;;;16.48;8.13;;;;;;;17.83;77.22;100286.53;5051534;28;20083;-68
2022/06/25 06:00:15;;;;;;;9.48;7.68;;;;;;;18.07;77.60;100292.44;5047509;28;20132;-67
2022/06/25 06:02:42;;;;;;;8.32;7.38;;;;;;;17.95;77.65;100222.53;5050029;28;20048;-68
2022/06/25 06:05:09;;;;;;;8.30;7.70;;;;;;;18.58;77.60;100290.56;5045102;28;20149;-68
2022/06/25 06:07:36;;;;;;;11.57;7.90;;;;;;;18.83;77.61;100297.25;5051079;28;20092;-69
2022/06/25 06:10:05;;;;;;;8.65;7.97;;;;;;;19.02;77.94;100299.66;5046443;28;20144;-69
2022/06/25 06:12:31;;;;;;;10.05;8.32;;;;;;;19.04;77.92;100297.31;5050188;28;20049;-68
2022/06/25 06:14:58;;;;;;;9.15;7.88;;;;;;;19.10;77.99;100292.25;5040952;28;20125;-67
2022/06/25 06:17:25;;;;;;;8.00;7.30;;;;;;;19.03;77.82;100258.84;5044343;28;20128;-68
2022/06/25 06:19:52;;;;;;;10.55;8.07;;;;;;;19.39;77.64;100297.03;5035040;28;20403;-69
2022/06/25 06:22:19;;;;;;;9.10;7.88;;;;;;;19.74;77.29;100308.06;5045358;28;20132;-69
2022/06/25 06:24:46;;;;;;;10.70;8.30;;;;;;;19.89;77.20;100293.22;5028579;28;20095;-69
2022/06/25 06:27:13;;;;;;;16.20;7.65;;;;;;;20.22;76.79;100306.56;5037819;28;20131;-69
2022/06/25 06:29:39;;;;;;;9.80;8.13;;;;;;;20.39;76.43;100306.34;5041804;28;20095;-70
2022/06/25 06:32:07;;;;;;;13.35;9.43;;;;;;;20.56;76.37;100300.47;5037091;28;20146;-69
2022/06/25 06:34:34;;;;;;;9.75;7.97;;;;;;;20.85;75.88;100312.75;5048000;28;22565;-71
2022/06/25 06:37:00;;;;;;;8.02;7.25;;;;;;;21.02;75.38;100301.13;5041957;28;20132;-69
2022/06/25 06:39:27;;;;;;;7.85;7.15;;;;;;;21.29;75.10;100310.91;5046796;28;20087;-69
2022/06/25 06:41:54;;;;;;;8.68;7.97;;;;;;;21.60;74.79;100319.94;5039600;28;20085;-72
2022/06/25 06:44:21;;;;;;;7.93;7.32;;;;;;;21.79;74.37;100322.13;5037839;28;20584;-68
2022/06/25 06:46:48;;;;;;;8.40;7.30;;;;;;;21.96;74.05;100322.63;5034863;28;20135;-69
2022/06/25 06:49:14;;;;;;;7.75;7.15;;;;;;;22.08;73.71;100320.91;5031661;28;20083;-70
2022/06/25 06:51:41;;;;;;;8.32;7.60;;;;;;;22.42;73.77;100337.31;5034028;28;20084;-70
2022/06/25 06:54:08;;;;;;;12.27;11.25;;;;;;;22.65;73.26;100339.53;5032250;28;20136;-69
2022/06/25 06:56:35;;;;;;;10.15;7.40;;;;;;;22.87;72.92;100321.81;5032082;28;20512;-69
2022/06/25 06:59:03;;;;;;;9.65;8.23;;;;;;;23.01;72.55;100323.34;5033061;28;20132;-70
2022/06/25 07:01:30;;;;;;;8.45;7.75;;;;;;;23.15;71.92;100321.69;5034329;28;20072;-70
2022/06/25 07:03:57;;;;;;;8.95;8.23;;;;;;;23.27;71.43;100323.56;5044652;28;20049;-70
2022/06/25 07:06:24;;;;;;;9.57;8.18;;;;;;;23.29;71.00;100304.09;5042987;28;20135;-68
2022/06/25 07:08:51;;;;;;;10.25;9.43;;;;;;;23.45;70.42;100323.13;5048862;28;20088;-69
2022/06/25 07:11:29;;;;;;;10.02;8.30;;;;;;;23.75;70.34;100341.34;5040071;28;20046;-72
2022/06/25 07:14:00;;;;;;;10.00;8.50;;;;;;;23.89;69.59;100318.81;5048719;28;20071;-70
2022/06/25 07:16:28;;;;;;;8.88;8.07;;;;;;;24.26;68.98;100334.59;5044160;28;20077;-69
2022/06/25 07:18:57;;;;;;;9.10;8.38;;;;;;;24.40;68.02;100334.03;5039545;28;20061;-69
2022/06/25 07:21:25;;;;;;;7.85;7.30;;;;;;;24.36;67.50;100317.66;5048526;28;20052;-69
2022/06/25 07:23:52;;;;;;;8.45;7.63;;;;;;;24.51;67.33;100329.38;5043131;28;20131;-70
2022/06/25 07:26:20;;;;;;;8.68;7.40;;;;;;;24.88;66.98;100337.34;5046407;28;20478;-70
2022/06/25 07:28:47;;;;;;;7.72;6.88;;;;;;;24.96;66.41;100327.69;5038656;28;20085;-71
2022/06/25 07:31:14;;;;;;;7.25;6.60;;;;;;;25.00;65.32;100345.72;5041883;28;20127;-69
2022/06/25 07:33:41;;;;;;;7.10;6.40;;;;;;;25.07;65.35;100351.53;5044950;28;20087;-67
2022/06/25 07:36:08;;;;;;;7.57;6.88;;;;;;;25.09;64.73;100340.53;5034738;28;20081;-71
2022/06/25 07:38:35;;;;;;;7.28;6.53;;;;;;;25.24;64.18;100351.03;5038181;28;20140;-71
2022/06/25 07:41:02;;;;;;;9.02;7.35;;;;;;;25.46;63.83;100355.00;5036510;28;20160;-71
2022/06/25 07:43:29;;;;;;;8.40;7.70;;;;;;;25.57;63.05;100355.16;5038706;28;20579;-69
2022/06/25 07:45:57;;;;;;;9.02;8.50;;;;;;;25.65;62.45;100351.19;5036281;28;20140;-73
2022/06/25 07:48:25;;;;;;;6.53;6.13;;;;;;;25.58;62.25;100336.81;5035580;28;20061;-71
2022/06/25 07:53:38;;;;;;;8.00;7.03;;;;;;;26.04;61.90;100359.47;5044289;28;20047;-71
2022/06/25 07:56:06;;;;;;;7.30;6.60;;;;;;;26.14;61.54;100355.91;5038136;28;20093;-71
2022/06/25 07:58:34;;;;;;;8.73;7.13;;;;;;;26.20;60.77;100356.38;5042587;28;20073;-71
2022/06/25 08:01:01;;;;;;;8.60;7.78;;;;;;;26.26;60.35;100362.56;5036121;28;20595;-71
2022/06/25 08:03:28;;;;;;;8.18;7.47;;;;;;;26.24;60.13;100349.47;5038166;28;20046;-71
2022/06/25 08:05:57;;;;;;;8.52;7.90;;;;;;;26.45;59.65;100360.31;5023381;28;20125;-72
2022/06/25 08:08:25;;;;;;;8.00;7.32;;;;;;;26.41;59.90;100352.94;5040177;28;20128;-71
2022/06/25 08:10:52;;;;;;;9.45;8.50;;;;;;;26.30;59.49;100361.41;5053329;28;20091;-69
2022/06/25 08:13:21;;;;;;;9.25;7.00;;;;;;;26.33;59.33;100351.22;5042870;28;20069;-70
2022/06/25 08:15:49;;;;;;;8.75;7.15;;;;;;;26.42;59.46;100351.69;5045549;28;20092;-70
2022/06/25 08:18:16;;;;;;;8.20;7.50;;;;;;;26.74;59.57;100356.97;5041418;28;20084;-71
2022/06/25 08:20:43;;;;;;;8.27;7.65;;;;;;;26.89;59.46;100347.25;5044352;28;20057;-70
2022/06/25 08:23:10;;;;;;;10.98;9.88;;;;;;;27.13;58.67;100358.13;5044580;28;20136;-69
2022/06/25 08:25:38;;;;;;;7.90;7.20;;;;;;;27.37;58.72;100373.84;5041341;28;20728;-70
2022/06/25 08:28:05;;;;;;;9.48;8.93;;;;;;;27.56;58.41;100372.75;5041178;28;20045;-70
2022/06/25 08:30:33;;;;;;;8.15;6.93;;;;;;;27.78;58.25;100372.88;5047993;28;20553;-70
2022/06/25 08:33:00;;;;;;;9.23;6.97;;;;;;;27.92;57.72;100369.25;5043449;28;20049;-68
2022/06/25 08:35:27;;;;;;;7.55;6.95;;;;;;;28.03;57.55;100376.66;5037272;28;20136;-68
2022/06/25 08:37:55;;;;;;;7.72;7.10;;;;;;;28.15;57.42;100374.69;5037615;28;20190;-67
2022/06/25 08:40:22;;;;;;;8.45;7.13;;;;;;;28.30;57.35;100374.31;5036736;28;20191;-68
2022/06/25 08:42:48;;;;;;;8.80;8.00;;;;;;;28.29;56.86;100389.91;5037293;28;20183;-68
2022/06/25 08:45:17;;;;;;;11.43;7.57;;;;;;;27.99;56.65;100311.88;5035201;28;20830;-69
2022/06/25 08:47:49;;;;;;;8.40;7.57;;;;;;;28.57;56.37;100368.25;5033328;28;20579;-69
2022/06/25 08:50:18;;;;;;;10.02;8.63;;;;;;;28.83;56.10;100390.03;5039036;28;20156;-68
2022/06/25 08:52:52;;;;;;;;;;;;;;;28.72;61.24;100389.22;5030593;28;20045;-69
2022/06/25 08:55:38;;;;;;;8.70;7.93;;;;;;;28.64;59.00;100371.13;5040396;28;19967;-71
2022/06/25 08:58:07;;;;;;;10.85;7.55;;;;;;;28.97;56.77;100378.53;5045730;28;20080;-69
2022/06/25 09:00:37;;;;;;;7.97;7.30;;;;;;;29.14;55.26;100368.28;5048310;28;20128;-69
2022/06/25 09:03:05;;;;;;;7.70;7.00;;;;;;;29.27;54.67;100385.97;5052748;28;20044;-70
2022/06/25 09:05:34;;;;;;;10.73;9.83;;;;;;;29.20;54.56;100385.97;5038284;28;20123;-69
2022/06/25 09:08:05;;;;;;;8.85;6.97;;;;;;;28.76;53.93;100390.03;5046422;28;20512;-69
2022/06/25 09:10:32;;;;;;;8.45;7.65;;;;;;;28.41;53.17;100385.88;5044179;28;20049;-68
2022/06/25 09:13:01;;;;;;;8.05;7.00;;;;;;;28.21;52.93;100373.06;5047498;28;20125;-69
2022/06/25 09:15:33;;;;;;;8.60;7.70;;;;;;;27.98;52.17;100382.81;5050128;28;20496;-69
2022/06/25 09:18:14;;;;;;;11.00;7.63;;;;;;;27.28;52.67;100393.47;5043986;28;20107;-69
2022/06/25 09:21:00;;;;;;;10.45;7.82;;;;;;;26.56;52.97;100369.03;5034505;28;20499;-68
2022/06/25 09:23:30;;;;;;;7.35;6.70;;;;;;;26.69;52.26;100347.50;5050869;28;20076;-69
2022/06/25 09:26:04;;;;;;;12.27;7.38;;;;;;;26.93;52.22;100394.78;5050613;28;20051;-70
2022/06/25 09:28:38;;;;;;;8.30;7.55;;;;;;;27.05;51.43;100367.88;5047871;28;20186;-68
2022/06/25 09:31:05;;;;;;;9.25;8.13;;;;;;;27.53;50.60;100402.22;5041068;28;20140;-68
2022/06/25 09:33:34;;;;;;;12.05;8.48;;;;;;;27.77;50.36;100392.16;5046507;28;20048;-70
2022/06/25 09:36:01;;;;;;;12.47;9.60;;;;;;;28.13;50.33;100402.97;5043782;28;20088;-69
2022/06/25 09:38:28;;;;;;;8.30;6.95;;;;;;;28.45;49.47;100397.38;5051256;28;20360;-70
2022/06/25 09:41:00;;;;;;;9.65;7.05;;;;;;;28.72;48.87;100389.22;5052094;28;20119;-70
2022/06/25 09:43:34;;;;;;;8.82;7.28;;;;;;;28.98;48.85;100380.16;5051716;28;20128;-68
2022/06/25 09:46:06;;;;;;;8.18;7.47;;;;;;;29.40;48.43;100390.03;5037322;28;20121;-69
2022/06/25 09:48:35;;;;;;;8.23;7.57;;;;;;;29.17;48.38;100387.59;5040270;28;20805;-70
2022/06/25 09:51:09;;;;;;;8.57;7.85;;;;;;;28.76;49.29;100408.09;5042927;28;20462;-69
2022/06/25 09:53:51;;;;;;;8.02;7.18;;;;;;;28.90;49.07;100407.28;5038626;28;20076;-68
2022/06/25 09:56:20;;;;;;;7.65;7.10;;;;;;;28.79;48.08;100413.03;5036179;28;20053;-69
2022/06/25 09:58:48;;;;;;;9.63;9.02;;;;;;;28.82;47.80;100397.00;5039489;28;20140;-71
2022/06/25 10:01:18;;;;;;;7.63;7.03;;;;;;;29.05;47.42;100394.56;5045022;28;20120;-70
2022/06/25 10:03:47;;;;;;;8.13;7.22;;;;;;;29.25;47.32;100394.16;5051102;28;20094;-70
2022/06/25 10:06:15;;;;;;;7.90;7.13;;;;;;;29.68;47.44;100411.41;5050130;28;20045;-70
2022/06/25 10:08:49;;;;;;;9.00;8.20;;;;;;;29.71;47.65;100387.50;5042896;28;20049;-70
2022/06/25 10:11:22;;;;;;;8.57;7.97;;;;;;;29.92;47.08;100393.22;5048280;28;20310;-69
2022/06/25 10:13:51;;;;;;;8.30;7.15;;;;;;;30.04;46.42;100376.72;5047400;28;20574;-69
2022/06/25 10:16:20;;;;;;;10.60;8.50;;;;;;;30.31;46.51;100400.88;5042890;28;20883;-71
2022/06/25 10:18:50;;;;;;;8.02;7.43;;;;;;;30.22;46.70;100400.50;5033238;28;20440;-69
2022/06/25 10:21:19;;;;;;;10.02;8.02;;;;;;;30.08;46.14;100389.03;5034345;28;20419;-69
2022/06/25 10:23:53;;;;;;;12.25;11.10;;;;;;;30.34;46.10;100391.41;5036651;28;20041;-69
2022/06/25 10:26:21;;;;;;;9.30;8.45;;;;;;;30.51;45.75;100389.66;5033298;28;20080;-69
2022/06/25 10:28:48;;;;;;;16.95;8.73;;;;;;;30.64;45.02;100399.47;5039333;28;20136;-69
2022/06/25 10:31:17;;;;;;;9.98;8.38;;;;;;;30.62;44.91;100367.34;5033284;28;20080;-69
2022/06/25 10:33:59;;;;;;;10.95;9.45;;;;;;;30.81;45.34;100391.97;5039228;28;20053;-68
2022/06/25 10:36:40;;;;;;;11.32;8.40;;;;;;;30.99;45.81;100379.47;5035381;28;20045;-67
2022/06/25 10:39:27;;;;;;;13.32;7.40;;;;;;;31.12;45.16;100390.06;5037727;28;20128;-69
2022/06/25 10:45:08;;;;;;;9.88;8.93;;;;;;;31.06;44.91;100373.63;5033802;28;20049;-69
2022/06/25 10:47:47;;;;;;;11.20;10.10;;;;;;;31.31;43.93;100385.75;5038616;28;20049;-69
2022/06/25 10:50:20;;;;;;;8.45;7.63;;;;;;;31.35;44.05;100380.81;5035233;28;20069;-69
2022/06/25 10:53:06;;;;;;;12.52;7.35;;;;;;;31.12;44.59;100386.34;5036048;28;20053;-68
2022/06/25 10:55:49;;;;;;;11.80;11.07;;;;;;;31.03;43.70;100368.72;5036422;28;20139;-70
2022/06/25 10:58:21;;;;;;;8.90;7.30;;;;;;;30.98;44.36;100390.19;5031914;28;22022;-68
2022/06/25 11:00:54;;;;;;;8.77;7.90;;;;;;;30.74;44.77;100391.97;5033698;28;20147;-67
2022/06/25 11:03:27;;;;;;;11.77;10.73;;;;;;;30.48;44.37;100387.63;5035140;28;20073;-68
2022/06/25 11:05:59;;;;;;;9.00;8.10;;;;;;;30.49;43.63;100397.06;5035917;28;20403;-69
2022/06/25 11:08:33;;;;;;;8.68;7.88;;;;;;;30.55;43.84;100376.03;5042666;28;20111;-69
2022/06/25 11:11:00;;;;;;;8.30;7.80;;;;;;;30.71;43.38;100406.41;5044244;28;20156;-69
2022/06/25 11:13:27;;;;;;;9.40;8.70;;;;;;;30.62;43.71;100395.34;5036974;28;20136;-70
2022/06/25 11:15:54;;;;;;;9.77;8.88;;;;;;;30.67;43.87;100403.56;5039065;28;20256;-69
2022/06/25 11:18:21;;;;;;;8.48;7.97;;;;;;;30.69;43.36;100396.13;5038671;28;20049;-69
2022/06/25 11:20:47;;;;;;;8.02;7.25;;;;;;;30.86;43.86;100408.78;5037375;28;20056;-69
2022/06/25 11:23:16;;;;;;;8.27;7.53;;;;;;;31.01;43.41;100409.53;5023526;28;20045;-68
2022/06/25 11:28:52;;;;;;;13.18;8.10;;;;;;;30.89;43.51;100415.78;5030858;28;20140;-69
2022/06/25 11:31:21;;;;;;;8.68;8.02;;;;;;;30.98;43.98;100412.44;5034271;28;20053;-70
2022/06/25 11:33:50;;;;;;;9.05;8.30;;;;;;;30.85;44.14;100409.22;5033901;28;20087;-70
2022/06/25 11:36:19;;;;;;;7.50;6.88;;;;;;;30.77;44.33;100401.84;5037485;28;20129;-70
2022/06/25 11:38:53;;;;;;;8.43;7.73;;;;;;;30.64;45.44;100393.69;5037198;28;20049;-70
2022/06/25 11:41:27;;;;;;;13.13;7.80;;;;;;;30.62;44.22;100386.69;5033215;28;20049;-69
2022/06/25 11:43:54;;;;;;;8.02;7.32;;;;;;;30.75;44.66;100404.31;5039144;28;20137;-69